»·PEaware :: SWA3909 KDEN-KSFO

SWA3909 :: KDEN-KSFO

FLIGHT INFORMATION

Flight Status: Arrived
Operator:
Southwest Airlines
More flights by this operator :: More flights under this callsign
Pilot: Merv A. (1555)
Aircraft: BOEING 737-700
(B737)
More flights by this aircraft type
Origin: KDEN Denver Intl
United States
Destination: KSFO San Francisco Intl
United States
More flights between these airports :: More routes between these airports
Route: COORZ4 VOAXA Q136 ELLFF WEEMN Q136 RUMPS INYOE DYAMD5
File this flight plan on PilotEdge
Remarks: RMK / SIMBRIEF
Altitude:
(Current/Filed)
38,000ft
Speed:
(Current/Filed)
455kts
Departed: 25-Jan-20 05:54 PM
Arrived: 25-Jan-20 08:09 PM
Distance/Time
Traveled:
839nm/2:15
Distance/Time
To Go:
Arrived

Flight Plot

Page will automatically refresh every two minutes.

Flight plan parsing failed; only flown route is shown


Map Options




Map Legend


Flown Route
Filed Route
Departure Airport
Arrival Airport
Navaid (VOR, NDB)
Fix

Horizontal Profiles

Position Reports

Time Latitude Longitude Heading Altitude Ground
Speed
25-Jan-20 17:10 39.863613 -104.677575 180 5438ft 0kts
25-Jan-20 17:11 39.863613 -104.677575 180 5438ft 0kts
25-Jan-20 17:12 39.863613 -104.677575 180 5438ft 0kts
25-Jan-20 17:13 39.863613 -104.677575 180 5438ft 0kts
25-Jan-20 17:14 39.863613 -104.677575 180 5438ft 0kts
25-Jan-20 17:15 39.863613 -104.677575 180 5438ft 0kts
25-Jan-20 17:16 39.863613 -104.677575 180 5438ft 0kts
25-Jan-20 17:17 39.863613 -104.677575 180 5438ft 0kts
25-Jan-20 17:18 39.863613 -104.677575 180 5438ft 0kts
25-Jan-20 17:19 39.863613 -104.677575 180 5438ft 0kts
25-Jan-20 17:20 39.863613 -104.677575 180 5438ft 0kts
25-Jan-20 17:21 39.863613 -104.677575 180 5438ft 0kts
25-Jan-20 17:22 39.863613 -104.677575 180 5438ft 0kts
25-Jan-20 17:23 39.863613 -104.677575 180 5438ft 0kts
25-Jan-20 17:24 39.863613 -104.677575 180 5438ft 0kts
25-Jan-20 17:25 39.863613 -104.677575 180 5438ft 0kts
25-Jan-20 17:26 39.863613 -104.677575 180 5438ft 0kts
25-Jan-20 17:27 39.863613 -104.677575 180 5438ft 0kts
25-Jan-20 17:28 39.863613 -104.677575 180 5438ft 0kts
25-Jan-20 17:29 39.863613 -104.677575 180 5438ft 0kts
25-Jan-20 17:30 39.863613 -104.677575 180 5438ft 0kts
25-Jan-20 17:31 39.863934 -104.677543 193 5438ft 2kts
25-Jan-20 17:32 39.864223 -104.676996 270 5438ft 0kts
25-Jan-20 17:33 39.864223 -104.676996 270 5438ft 0kts
25-Jan-20 17:34 39.864223 -104.676996 270 5438ft 0kts
25-Jan-20 17:35 39.864223 -104.676996 270 5438ft 0kts
25-Jan-20 17:36 39.864223 -104.676996 270 5438ft 0kts
25-Jan-20 17:37 39.864223 -104.676996 270 5438ft 0kts
25-Jan-20 17:38 39.864223 -104.676996 270 5438ft 0kts
25-Jan-20 17:39 39.864223 -104.676997 270 5438ft 0kts
25-Jan-20 17:40 39.864225 -104.677591 270 5438ft 4kts
25-Jan-20 17:41 39.864841 -104.678912 270 5438ft 6kts
25-Jan-20 17:42 39.864357 -104.682136 247 5438ft 9kts
25-Jan-20 17:43 39.864326 -104.682861 270 5438ft 0kts
25-Jan-20 17:44 39.864306 -104.683503 255 5438ft 5kts
25-Jan-20 17:45 39.862023 -104.683937 180 5438ft 11kts
25-Jan-20 17:46 39.858506 -104.683958 180 5438ft 12kts
25-Jan-20 17:47 39.855280 -104.683994 180 5438ft 11kts
25-Jan-20 17:48 39.851812 -104.684044 180 5438ft 13kts
25-Jan-20 17:49 39.847771 -104.684093 180 5438ft 15kts
25-Jan-20 17:50 39.843817 -104.684132 180 5438ft 11kts
25-Jan-20 17:51 39.841842 -104.684173 181 5438ft 1kts
25-Jan-20 17:52 39.840782 -104.684240 207 5438ft 7kts
25-Jan-20 17:53 39.840733 -104.698022 270 5439ft 134kts
25-Jan-20 17:54 39.843001 -104.760682 283 7358ft 186kts
25-Jan-20 17:55 39.873951 -104.829326 303 8462ft 262kts
25-Jan-20 17:56 39.916206 -104.915369 299 10444ft 292kts
25-Jan-20 17:57 39.941979 -105.022338 268 12914ft 333kts
25-Jan-20 17:58 39.928297 -105.143925 264 16111ft 346kts
25-Jan-20 17:59 39.913519 -105.270443 266 19051ft 361kts
25-Jan-20 18:00 39.898365 -105.401690 266 21781ft 372kts
25-Jan-20 18:02 39.882663 -105.537180 265 24204ft 382kts
25-Jan-20 18:03 39.865869 -105.675597 265 26197ft 394kts
25-Jan-20 18:04 39.851459 -105.818871 268 27908ft 404kts
25-Jan-20 18:05 39.838873 -105.966063 268 29417ft 414kts
25-Jan-20 18:06 39.825604 -106.116308 268 30710ft 423kts
25-Jan-20 18:07 39.812622 -106.268848 268 32220ft 423kts
25-Jan-20 18:08 39.798825 -106.420144 267 33629ft 421kts
25-Jan-20 18:09 39.784394 -106.571435 266 34892ft 421kts
25-Jan-20 18:10 39.767779 -106.721544 266 35983ft 420kts
25-Jan-20 18:11 39.750930 -106.872043 266 36978ft 420kts
25-Jan-20 18:12 39.734204 -107.022384 266 37827ft 420kts
25-Jan-20 18:13 39.717524 -107.172953 266 38238ft 422kts
25-Jan-20 18:14 39.700457 -107.323435 266 38256ft 422kts
25-Jan-20 18:15 39.683113 -107.474064 266 38262ft 421kts
25-Jan-20 18:16 39.665591 -107.624335 266 38256ft 421kts
25-Jan-20 18:17 39.647933 -107.774045 266 38249ft 421kts
25-Jan-20 18:18 39.630160 -107.925197 266 38251ft 421kts
25-Jan-20 18:19 39.612030 -108.075113 266 38255ft 420kts
25-Jan-20 18:20 39.593637 -108.224531 266 38263ft 421kts
25-Jan-20 18:21 39.574980 -108.374543 266 38271ft 420kts
25-Jan-20 18:21 39.559296 -108.498651 266 38278ft 419kts
25-Jan-20 18:23 39.536999 -108.672946 266 38291ft 419kts
25-Jan-20 18:24 39.518434 -108.820785 266 38299ft 417kts
25-Jan-20 18:24 39.502698 -108.944140 266 38301ft 416kts
25-Jan-20 18:25 39.483528 -109.092048 266 38301ft 415kts
25-Jan-20 18:27 39.460964 -109.263834 266 38301ft 413kts
25-Jan-20 18:27 39.444835 -109.385343 266 38301ft 413kts
25-Jan-20 18:28 39.425248 -109.531555 266 38301ft 412kts
25-Jan-20 18:29 39.405770 -109.677685 266 38297ft 411kts
25-Jan-20 18:30 39.385760 -109.823192 265 38299ft 411kts
25-Jan-20 18:31 39.365564 -109.968758 266 38298ft 411kts
25-Jan-20 18:32 39.346085 -110.113532 266 38296ft 409kts
25-Jan-20 18:33 39.326307 -110.258801 266 38293ft 409kts
25-Jan-20 18:34 39.306427 -110.403610 266 38289ft 408kts
25-Jan-20 18:35 39.287182 -110.547587 266 38286ft 408kts
25-Jan-20 18:36 39.267366 -110.691873 265 38284ft 408kts
25-Jan-20 18:37 39.247096 -110.835580 265 38284ft 408kts
25-Jan-20 18:38 39.226505 -110.980544 265 38287ft 409kts
25-Jan-20 18:39 39.205747 -111.124660 265 38291ft 408kts
25-Jan-20 18:40 39.184749 -111.268832 265 38295ft 408kts
25-Jan-20 18:41 39.163982 -111.411973 265 38298ft 407kts
25-Jan-20 18:42 39.143180 -111.555742 265 38287ft 408kts
25-Jan-20 18:43 39.121968 -111.699699 264 38284ft 408kts
25-Jan-20 18:44 39.100569 -111.843250 264 38279ft 408kts
25-Jan-20 18:45 39.078966 -111.987228 265 38274ft 408kts
25-Jan-20 18:46 39.057484 -112.130222 264 38270ft 407kts
25-Jan-20 18:47 39.035451 -112.273087 264 38263ft 407kts
25-Jan-20 18:48 39.013321 -112.415623 264 38263ft 407kts
25-Jan-20 18:49 38.990902 -112.558180 264 38260ft 407kts
25-Jan-20 18:50 38.968178 -112.701143 263 38259ft 406kts
25-Jan-20 18:51 38.945585 -112.843051 264 38258ft 406kts
25-Jan-20 18:52 38.923125 -112.985528 263 38258ft 406kts
25-Jan-20 18:53 38.900465 -113.126669 263 38252ft 405kts
25-Jan-20 18:54 38.877435 -113.268563 263 38251ft 405kts
25-Jan-20 18:55 38.854231 -113.410261 263 38250ft 404kts
25-Jan-20 18:56 38.831184 -113.551569 263 38250ft 404kts
25-Jan-20 18:57 38.807639 -113.692438 263 38251ft 404kts
25-Jan-20 18:58 38.783966 -113.832774 263 38250ft 404kts
25-Jan-20 18:59 38.760056 -113.973338 262 38251ft 404kts
25-Jan-20 19:00 38.735827 -114.114235 262 38252ft 402kts
25-Jan-20 19:01 38.711645 -114.253772 262 38255ft 403kts
25-Jan-20 19:02 38.687668 -114.394201 262 38255ft 402kts
25-Jan-20 19:03 38.663519 -114.533505 262 38255ft 402kts
25-Jan-20 19:04 38.638982 -114.673436 262 38255ft 402kts
25-Jan-20 19:05 38.614473 -114.813643 262 38255ft 403kts
25-Jan-20 19:06 38.589455 -114.953288 262 38250ft 404kts
25-Jan-20 19:07 38.564276 -115.092896 261 38249ft 403kts
25-Jan-20 19:08 38.538816 -115.232656 261 38247ft 403kts
25-Jan-20 19:09 38.513199 -115.371923 261 38247ft 403kts
25-Jan-20 19:10 38.487474 -115.510800 261 38242ft 403kts
25-Jan-20 19:11 38.462039 -115.650216 261 38241ft 402kts
25-Jan-20 19:12 38.436321 -115.788904 261 38238ft 402kts
25-Jan-20 19:13 38.410244 -115.928151 260 38243ft 403kts
25-Jan-20 19:14 38.384287 -116.067037 260 38239ft 402kts
25-Jan-20 19:15 38.357785 -116.205643 260 38240ft 403kts
25-Jan-20 19:16 38.330964 -116.344498 259 38241ft 404kts
25-Jan-20 19:17 38.299839 -116.482247 257 38243ft 404kts
25-Jan-20 19:18 38.268616 -116.619275 257 38245ft 404kts
25-Jan-20 19:19 38.237186 -116.756983 257 38245ft 403kts
25-Jan-20 19:20 38.206321 -116.894182 257 38247ft 404kts
25-Jan-20 19:21 38.175104 -117.031221 257 38248ft 403kts
25-Jan-20 19:22 38.143270 -117.168457 256 38249ft 403kts
25-Jan-20 19:23 38.113488 -117.305646 261 38248ft 402kts
25-Jan-20 19:24 38.093677 -117.445334 262 38246ft 402kts
25-Jan-20 19:25 38.073508 -117.584752 261 38239ft 403kts
25-Jan-20 19:26 38.053028 -117.724610 261 38234ft 402kts
25-Jan-20 19:27 38.032678 -117.864634 261 38224ft 402kts
25-Jan-20 19:28 38.011985 -118.004183 261 38218ft 402kts
25-Jan-20 19:29 37.991089 -118.143429 261 38213ft 402kts
25-Jan-20 19:30 37.969982 -118.282695 261 38209ft 403kts
25-Jan-20 19:31 37.948934 -118.421980 261 38236ft 403kts
25-Jan-20 19:32 37.927513 -118.561123 260 38257ft 402kts
25-Jan-20 19:33 37.905809 -118.699837 260 38266ft 401kts
25-Jan-20 19:34 37.886520 -118.839353 263 38275ft 401kts
25-Jan-20 19:35 37.870907 -118.978397 263 38278ft 400kts
25-Jan-20 19:36 37.854699 -119.118368 263 38274ft 400kts
25-Jan-20 19:37 37.838611 -119.257898 263 38267ft 400kts
25-Jan-20 19:38 37.822474 -119.397255 262 38257ft 400kts
25-Jan-20 19:39 37.806010 -119.536511 262 38246ft 400kts
25-Jan-20 19:40 37.789469 -119.674571 262 38236ft 399kts
25-Jan-20 19:41 37.772590 -119.813891 262 38226ft 399kts
25-Jan-20 19:42 37.755606 -119.952612 262 37533ft 403kts
25-Jan-20 19:43 37.738625 -120.092165 261 35240ft 401kts
25-Jan-20 19:44 37.721069 -120.232143 261 32847ft 406kts
25-Jan-20 19:45 37.703089 -120.373469 261 30448ft 403kts
25-Jan-20 19:46 37.686974 -120.510551 262 28055ft 390kts
25-Jan-20 19:47 37.671192 -120.644630 262 25642ft 378kts
25-Jan-20 19:48 37.655987 -120.772811 262 23525ft 362kts
25-Jan-20 19:49 37.641071 -120.896510 261 21474ft 348kts
25-Jan-20 19:50 37.626173 -121.014990 260 19421ft 338kts
25-Jan-20 19:51 37.610516 -121.131869 259 17667ft 336kts
25-Jan-20 19:52 37.595106 -121.245629 259 15968ft 323kts
25-Jan-20 19:53 37.582455 -121.354091 260 14795ft 292kts
25-Jan-20 19:54 37.571014 -121.452790 260 13317ft 281kts
25-Jan-20 19:55 37.559779 -121.548398 259 11981ft 261kts
25-Jan-20 19:56 37.547683 -121.639627 253 10155ft 266kts
25-Jan-20 19:57 37.526405 -121.727409 251 8849ft 253kts
25-Jan-20 19:58 37.506464 -121.810269 251 7901ft 241kts
25-Jan-20 19:59 37.487831 -121.886830 250 6975ft 223kts
25-Jan-20 20:00 37.468853 -121.958263 250 6321ft 208kts
25-Jan-20 20:01 37.473907 -122.029237 292 5441ft 216kts
25-Jan-20 20:02 37.500890 -122.094579 295 4359ft 201kts
25-Jan-20 20:03 37.526518 -122.155567 295 3496ft 189kts
25-Jan-20 20:04 37.550397 -122.212336 296 2564ft 175kts
25-Jan-20 20:05 37.572677 -122.265339 296 1656ft 161kts
25-Jan-20 20:06 37.591181 -122.309385 296 892ft 131kts
25-Jan-20 20:07 37.608157 -122.349946 296 188ft 129kts
25-Jan-20 20:08 37.619736 -122.377453 293 21ft 17kts
25-Jan-20 20:09 37.619714 -122.379200 230 20ft 0kts
25-Jan-20 20:10 37.618772 -122.379923 174 20ft 9kts
25-Jan-20 20:11 37.615608 -122.380303 207 20ft 13kts
25-Jan-20 20:13 37.613532 -122.382385 296 20ft 7kts
25-Jan-20 20:14 37.614448 -122.383936 17 20ft 4kts
25-Jan-20 20:15 37.614813 -122.383726 26 20ft 0kts
25-Jan-20 20:16 37.614813 -122.383726 26 20ft 0kts
25-Jan-20 20:17 37.614813 -122.383726 26 20ft 0kts
25-Jan-20 20:18 37.614813 -122.383726 26 20ft 0kts
25-Jan-20 20:19 37.614813 -122.383726 26 20ft 0kts

Navigation Log

Ident Type
Flight plan parsing failed, navigation log unavailable